createdAt,value
2017-03-24T16:59:35.766Z,80.66
2017-03-24T17:00:44.977Z,77.99
2017-03-24T17:01:53.572Z,79.04
2017-03-24T17:03:02.466Z,77.42
2017-03-24T17:04:11.047Z,76.65
2017-03-24T17:05:19.936Z,77.32
2017-03-24T17:06:28.822Z,77.42
2017-03-24T17:07:38.351Z,77.51
2017-03-24T17:08:47.239Z,77.32
2017-03-24T17:09:56.137Z,78.09
2017-03-24T17:11:04.714Z,77.57
2017-03-24T17:12:13.302Z,77.38
2017-03-24T17:13:21.882Z,76.37
2017-03-24T17:14:30.777Z,75.95
2017-03-24T17:15:39.360Z,76.62
2017-03-24T17:16:47.936Z,77.19
2017-03-24T17:17:56.827Z,77.57
2017-03-24T17:19:05.724Z,78.23
2017-03-24T17:20:14.614Z,79.1
2017-03-24T17:21:23.500Z,78.43
2017-03-24T17:22:32.706Z,79.48
2017-03-24T17:23:41.914Z,79.77
2017-03-24T17:24:50.796Z,80.43
2017-03-24T17:26:00.001Z,79.96
2017-03-24T17:27:08.893Z,79.57
2017-03-24T17:28:17.464Z,79.1
2017-03-24T17:29:26.353Z,78.23
2017-03-24T17:30:35.240Z,79.28
2017-03-24T17:31:43.812Z,78.72
2017-03-24T17:32:52.383Z,80.43
2017-03-24T17:34:01.271Z,80.15
2017-03-24T17:35:10.163Z,79.25
2017-03-24T17:36:18.747Z,80.77
2017-03-24T17:37:28.272Z,81.15
2017-03-24T17:38:37.098Z,81.44
2017-03-24T17:39:45.991Z,82.4
2017-03-24T17:40:54.896Z,82.49
2017-03-24T17:42:03.474Z,82.01
2017-03-24T17:43:12.362Z,82.49
2017-03-24T17:44:21.257Z,80.77
2017-03-24T17:45:30.141Z,81.35
2017-03-24T17:46:39.977Z,82.4
2017-03-24T17:47:48.561Z,81.73
2017-03-24T17:48:57.766Z,82.4
2017-03-24T17:50:06.340Z,81.73
2017-03-24T17:51:15.232Z,80.96
2017-03-24T17:52:24.754Z,81.15
2017-03-24T17:53:33.640Z,81.54
2017-03-24T17:54:42.563Z,81.25
2017-03-24T17:55:52.098Z,81.82
2017-03-24T17:57:00.984Z,81.73
2017-03-24T17:58:09.878Z,81.44
2017-03-24T17:59:19.082Z,82.11
2017-03-24T18:00:28.284Z,81.97
2017-03-24T18:01:37.165Z,82.17
2017-03-24T18:02:45.737Z,82.26
2017-03-24T18:03:54.624Z,82.17
2017-03-24T18:05:03.200Z,81.68
2017-03-24T18:06:12.083Z,81.4
2017-03-24T18:07:20.979Z,81.68
2017-03-24T18:08:29.867Z,81.59
2017-03-24T18:09:39.385Z,81.97
2017-03-24T18:10:47.964Z,82.73
2017-03-24T18:11:56.855Z,82.07
2017-03-24T18:13:06.064Z,82.54
2017-03-24T18:14:15.273Z,83.12
2017-03-24T18:15:23.848Z,82.17
2017-03-24T18:16:33.076Z,82.26
2017-03-24T18:17:42.284Z,82.64
2017-03-24T18:18:50.861Z,82.54
2017-03-24T18:19:59.749Z,83.21
2017-03-24T18:21:09.220Z,83.78
2017-03-24T18:22:18.149Z,83.45
2017-03-24T18:23:27.042Z,82.79
2017-03-24T18:24:35.930Z,82.79
2017-03-24T18:25:44.835Z,82.89
2017-03-24T18:26:53.724Z,82.89
2017-03-24T18:28:02.618Z,82.12
2017-03-24T18:29:11.507Z,81.84
2017-03-24T18:30:20.082Z,81.93
2017-03-24T18:31:28.651Z,82.03
2017-03-24T18:32:37.909Z,82.21
2017-03-24T18:33:46.795Z,82.21
2017-03-24T18:34:56.633Z,82.03
2017-03-24T18:36:05.534Z,82.5
2017-03-24T18:37:14.416Z,82.03
2017-03-24T18:38:22.990Z,82.41
2017-03-24T18:39:31.876Z,82.69
2017-03-24T18:40:40.451Z,82.31
2017-03-24T18:41:49.269Z,82.03
2017-03-24T18:42:58.215Z,82.41
2017-03-24T18:44:07.101Z,82.31
2017-03-24T18:45:15.986Z,82.6
2017-03-24T18:46:24.880Z,82.12
2017-03-24T18:47:33.450Z,82.03
2017-03-24T18:48:42.033Z,81.74
2017-03-24T18:49:51.048Z,81.93
2017-03-24T18:50:59.961Z,82.03
2017-03-24T18:52:09.290Z,82.21
2017-03-24T18:53:20.212Z,82.69
2017-03-24T18:54:29.329Z,82.12
2017-03-24T18:55:37.966Z,81.46
2017-03-24T18:56:46.578Z,82.21
2017-03-24T18:57:55.466Z,82.6
2017-03-24T18:59:04.561Z,82.12
2017-03-24T19:00:13.546Z,83.26
2017-03-24T19:01:23.591Z,83.17
2017-03-24T19:02:32.551Z,82.6
2017-03-24T19:03:42.615Z,83.45
2017-03-24T19:04:51.875Z,83.84
2017-03-24T19:06:01.072Z,83.65
2017-03-24T19:07:10.310Z,83.45
2017-03-24T19:08:19.153Z,83.84
2017-03-24T19:09:28.074Z,84.03
2017-03-24T19:10:37.485Z,83.55
2017-03-24T19:11:46.529Z,83.65
2017-03-24T19:12:56.053Z,84.03
2017-03-24T19:14:05.184Z,83.98
2017-03-24T19:15:13.829Z,83.93
2017-03-24T19:16:22.590Z,84.46
2017-03-24T19:17:31.593Z,85.13
2017-03-24T19:18:40.580Z,84.56
2017-03-24T19:19:49.896Z,85.32
2017-03-24T19:20:58.935Z,85.8
2017-03-24T19:22:07.529Z,85.99
2017-03-24T19:23:16.946Z,85.41
2017-03-24T19:24:26.181Z,85.13
2017-03-24T19:25:35.501Z,85.32
2017-03-24T19:26:44.136Z,85.8
2017-03-24T19:27:53.127Z,85.6
2017-03-24T19:29:01.842Z,86.08
2017-03-24T19:30:11.695Z,85.8
2017-03-24T19:31:20.651Z,86.75
2017-03-24T19:32:29.890Z,85.7
2017-03-24T19:33:38.872Z,86.18
2017-03-24T19:34:47.820Z,86.46
2017-03-24T19:35:57.214Z,85.8
2017-03-24T19:37:06.503Z,86.36
2017-03-24T19:38:15.533Z,86.94
2017-03-24T19:39:24.542Z,87.03
2017-03-24T19:40:34.385Z,87.6
2017-03-24T19:41:43.616Z,87.23
2017-03-24T19:42:53.226Z,87.79
2017-03-24T19:44:02.895Z,88.27
2017-03-24T19:45:11.524Z,87.32
2017-03-24T19:46:21.054Z,87.51
2017-03-24T19:47:29.626Z,86.55
2017-03-24T19:48:38.239Z,86.75
2017-03-24T19:49:46.808Z,86.94
2017-03-24T19:50:55.701Z,86.36
2017-03-24T19:52:04.965Z,87.13
2017-03-24T19:53:13.545Z,86.84
2017-03-24T19:54:22.753Z,87.7
2017-03-24T19:55:31.341Z,86.84
2017-03-24T19:56:40.228Z,87.37
2017-03-24T19:57:48.811Z,86.99
2017-03-24T19:58:57.703Z,87.51
2017-03-24T20:00:06.601Z,88.99
2017-03-24T20:01:15.493Z,87.46
2017-03-24T20:02:24.115Z,87.46
2017-03-24T20:03:33.011Z,87.37
2017-03-24T20:04:41.902Z,87.56
2017-03-24T20:05:50.483Z,87.46
2017-03-24T20:06:59.710Z,86.99
2017-03-24T20:08:08.600Z,86.42
2017-03-24T20:09:17.173Z,87.37
2017-03-24T20:10:25.910Z,87.46
2017-03-24T20:11:34.804Z,87.75
2017-03-24T20:12:43.730Z,88.04
2017-03-24T20:13:52.692Z,88.89
2017-03-24T20:15:01.588Z,89.47
2017-03-24T20:16:10.819Z,88.99
2017-03-24T20:17:19.819Z,89.08
2017-03-24T20:18:28.407Z,88.99
2017-03-24T20:19:37.295Z,88.89
2017-03-24T20:20:45.893Z,88.89
2017-03-24T20:21:54.794Z,89.94
2017-03-24T20:23:03.687Z,90.22
2017-03-24T20:24:12.579Z,89.75
2017-03-24T20:25:21.803Z,89.47
2017-03-24T20:26:31.020Z,89.94
2017-03-24T20:27:39.919Z,90.03
2017-03-24T20:28:49.140Z,91.37
2017-03-24T20:29:58.049Z,90.42
2017-03-24T20:31:06.692Z,90.22
2017-03-24T20:32:15.958Z,89.94
2017-03-24T20:33:24.900Z,90.32
2017-03-24T20:34:33.493Z,91.17
2017-03-24T20:35:42.723Z,90.99
2017-03-24T20:36:51.968Z,90.8
2017-03-24T20:38:00.581Z,90.03
2017-03-24T20:39:09.497Z,90.08
2017-03-24T20:40:18.759Z,91.03
2017-03-24T20:41:27.712Z,91.42
2017-03-24T20:42:36.347Z,91.32
2017-03-24T20:43:45.600Z,90.61
2017-03-24T20:44:54.240Z,90.75
2017-03-24T20:46:03.236Z,90.56
2017-03-24T20:47:12.136Z,89.7
2017-03-24T20:48:20.770Z,89.94
2017-03-24T20:49:30.015Z,90.32
2017-03-24T20:50:39.239Z,89.75
2017-03-24T20:51:48.461Z,90.47
2017-03-24T20:52:57.372Z,91.13
2017-03-24T20:54:06.006Z,90.66
2017-03-24T20:55:14.624Z,91.89
2017-03-24T20:56:23.875Z,91.22
2017-03-24T20:57:32.791Z,92.46
2017-03-24T20:58:42.037Z,91.22
2017-03-24T20:59:51.318Z,91.32
2017-03-24T21:01:00.247Z,92.36
2017-03-24T21:02:09.153Z,92.75
2017-03-24T21:03:18.094Z,91.89
2017-03-24T21:04:27.000Z,91.99
2017-03-24T21:05:35.931Z,92.18
2017-03-24T21:06:44.871Z,93.98
2017-03-24T21:07:53.827Z,93.51
2017-03-24T21:09:02.776Z,93.04
2017-03-24T21:10:11.697Z,93.7
2017-03-24T21:11:20.320Z,93.89
2017-03-24T21:12:29.574Z,94.46
2017-03-24T21:13:38.828Z,95.7
2017-03-24T21:14:47.741Z,93.41
2017-03-24T21:15:56.348Z,93.79
2017-03-24T21:17:05.289Z,93.7
2017-03-24T21:18:14.353Z,92.84
2017-03-24T21:19:22.976Z,93.41
2017-03-24T21:20:31.897Z,92.75
2017-03-24T21:21:40.826Z,92.27
2017-03-24T21:22:49.755Z,93.23
2017-03-24T21:23:58.844Z,92.94
2017-03-24T21:25:07.779Z,92.18
2017-03-24T21:26:16.387Z,93.13
2017-03-24T21:27:25.103Z,92.27
2017-03-24T21:28:33.699Z,92.18
2017-03-24T21:29:42.897Z,92.18
2017-03-24T21:30:51.475Z,92.46
2017-03-24T21:32:00.678Z,92.27
2017-03-24T21:33:09.949Z,93.04
2017-03-24T21:34:18.881Z,92.27
2017-03-24T21:35:27.462Z,92.08
2017-03-24T21:36:36.507Z,92.94
2017-03-24T21:37:45.402Z,93.51
2017-03-24T21:38:54.290Z,92.94
2017-03-24T21:40:03.172Z,93.23
2017-03-24T21:41:12.058Z,93.41
2017-03-24T21:42:20.626Z,93.65
2017-03-24T21:43:29.202Z,93.32
2017-03-24T21:44:37.773Z,92.7
2017-03-24T21:45:46.979Z,93.7
2017-03-24T21:46:55.554Z,93.84
2017-03-24T21:48:04.122Z,93.18
2017-03-24T21:49:13.005Z,92.89
2017-03-24T21:50:22.521Z,93.08
2017-03-24T21:51:31.405Z,92.89
2017-03-24T21:52:40.291Z,93.18
2017-03-24T21:53:49.181Z,92.61
2017-03-24T21:54:57.755Z,92.99
2017-03-24T21:56:06.643Z,93.37
2017-03-24T21:57:16.160Z,92.99
2017-03-24T21:58:25.675Z,93.65
2017-03-24T21:59:34.567Z,92.89
2017-03-24T22:00:43.455Z,92.8
2017-03-24T22:01:52.344Z,93.37
2017-03-24T22:03:01.230Z,93.65
2017-03-24T22:04:10.113Z,93.37
2017-03-24T22:05:19.315Z,93.18
2017-03-24T22:06:28.560Z,93.37
2017-03-24T22:07:37.778Z,93.94
2017-03-24T22:08:46.344Z,92.89
2017-03-24T22:09:55.546Z,94.22
2017-03-24T22:11:04.114Z,94.13
2017-03-24T22:12:13.306Z,94.7
2017-03-24T22:13:22.510Z,94.7
2017-03-24T22:14:31.710Z,94.6
2017-03-24T22:15:41.232Z,94.7
2017-03-24T22:16:50.119Z,94.6
2017-03-24T22:17:58.699Z,95.08
2017-03-24T22:19:07.591Z,96.41
2017-03-24T22:20:16.477Z,95.84
2017-03-24T22:21:25.677Z,95.56
2017-03-24T22:22:34.564Z,95.56
2017-03-24T22:23:43.449Z,96.41
2017-03-24T22:24:52.645Z,96.31
2017-03-24T22:26:01.210Z,96.41
2017-03-24T22:27:10.726Z,96.03
2017-03-24T22:28:20.291Z,97.27
2017-03-24T22:29:29.181Z,97.31
2017-03-24T22:30:37.756Z,99.16
2017-03-24T22:31:46.638Z,98.45
2017-03-24T22:32:55.524Z,99.02
2017-03-24T22:34:04.411Z,98.45
2017-03-24T22:35:13.337Z,99.3
2017-03-24T22:36:22.540Z,99.59
2017-03-24T22:37:31.147Z,99.99
2017-03-24T22:38:40.032Z,99.99
2017-03-24T22:39:48.598Z,99.99
2017-03-24T22:40:57.167Z,99.99
2017-03-24T22:42:05.734Z,99.99
2017-03-24T22:43:14.302Z,99.99
2017-03-24T22:44:23.186Z,99.99
2017-03-24T22:45:32.385Z,99.99
2017-03-24T22:46:41.269Z,99.99
2017-03-24T22:47:50.156Z,99.99
2017-03-24T22:48:59.674Z,99.99
2017-03-24T22:50:08.876Z,99.99
2017-03-24T22:51:17.443Z,99.99
2017-03-24T22:52:26.964Z,99.99
2017-03-24T22:53:35.530Z,99.99
2017-03-24T22:54:44.097Z,99.99
2017-03-24T22:55:52.981Z,99.99
2017-03-24T22:57:01.548Z,99.99
2017-03-24T22:58:10.115Z,99.99
2017-03-24T22:59:18.997Z,99.99
2017-03-24T23:00:27.562Z,99.99
2017-03-24T23:01:36.762Z,99.99
2017-03-24T23:02:45.960Z,99.99
2017-03-24T23:03:55.155Z,99.99
2017-03-24T23:05:04.355Z,99.99
2017-03-24T23:06:13.241Z,99.99
2017-03-24T23:07:22.131Z,99.99
2017-03-24T23:08:30.753Z,99.99
2017-03-24T23:09:39.322Z,99.99
2017-03-24T23:10:47.889Z,99.99
2017-03-24T23:11:56.779Z,99.99
2017-03-24T23:13:05.685Z,99.99
2017-03-24T23:14:14.248Z,99.99
2017-03-24T23:15:23.449Z,99.99
2017-03-24T23:16:32.022Z,99.99
2017-03-24T23:17:40.909Z,99.99
2017-03-24T23:18:49.795Z,99.99
2017-03-24T23:19:59.311Z,99.99
2017-03-24T23:21:07.883Z,99.99
2017-03-24T23:22:17.083Z,99.99
2017-03-24T23:23:25.965Z,99.99
2017-03-24T23:24:35.167Z,99.99
2017-03-24T23:25:43.734Z,99.99
2017-03-24T23:26:52.303Z,99.99
2017-03-24T23:28:01.188Z,99.99
2017-03-24T23:29:09.758Z,99.99
2017-03-24T23:30:18.638Z,99.99
2017-03-24T23:31:27.206Z,99.99
2017-03-24T23:32:35.817Z,99.99
2017-03-24T23:33:45.018Z,99.99
2017-03-24T23:34:53.588Z,99.99
2017-03-24T23:36:02.159Z,99.99
2017-03-24T23:37:11.360Z,99.99
2017-03-24T23:38:20.874Z,99.99
2017-03-24T23:39:29.759Z,99.99
2017-03-24T23:40:38.371Z,99.99
2017-03-24T23:41:47.254Z,99.99
2017-03-24T23:42:56.454Z,99.99
2017-03-24T23:44:05.022Z,99.99
2017-03-24T23:45:13.905Z,99.99
2017-03-24T23:46:22.792Z,99.99
2017-03-24T23:47:32.308Z,99.99
2017-03-24T23:48:41.188Z,99.99
2017-03-24T23:49:49.754Z,99.99
2017-03-24T23:50:58.637Z,99.99
2017-03-24T23:52:07.527Z,99.99
2017-03-24T23:53:16.412Z,99.99
2017-03-24T23:54:25.299Z,99.99
2017-03-24T23:55:33.863Z,99.99
2017-03-24T23:56:42.431Z,99.99
2017-03-24T23:57:50.999Z,99.99
2017-03-24T23:59:00.196Z,99.99
